createdAt,value
2022-10-18T00:00:01.996Z,76.72262575966703
2022-10-18T00:15:01.674Z,76.7228817784834
2022-10-18T00:30:02.434Z,76.57121520969955
2022-10-18T00:45:02.133Z,76.53339178478353
2022-10-18T01:00:01.823Z,76.45841051068285
2022-10-18T01:15:01.904Z,76.65843847098033
2022-10-18T01:30:01.681Z,77.1600839831469
2022-10-18T01:45:02.362Z,76.7547835961292
2022-10-18T02:00:01.961Z,77.46348946271023
2022-10-18T02:15:01.636Z,76.99243731594647
2022-10-18T02:30:02.301Z,76.9171301378939
2022-10-18T02:45:01.978Z,76.85882990226354
2022-10-18T03:00:01.640Z,76.77138255660579
2022-10-18T03:15:02.298Z,77.02328922662187
2022-10-18T03:30:01.995Z,77.06711416262927
2022-10-18T03:45:01.668Z,76.82098845004278
2022-10-18T04:00:02.334Z,76.82398585236034
2022-10-18T04:15:01.981Z,76.5863378156488
2022-10-18T04:30:02.211Z,76.64678964235735
2022-10-18T04:45:01.863Z,76.72272680211681
2022-10-18T05:00:02.517Z,76.63040438707448
2022-10-18T05:15:02.119Z,76.79252552644621
2022-10-18T05:30:04.710Z,76.73382496289481
2022-10-18T05:45:02.466Z,76.74424954268797
2022-10-18T06:00:02.195Z,76.68745967498663
2022-10-18T06:15:01.844Z,76.64172946229209
2022-10-18T06:30:02.536Z,76.55305358784567
2022-10-18T06:45:02.211Z,76.43456178538548
2022-10-18T07:00:01.906Z,77.22847196360296
2022-10-18T07:15:05.611Z,77.69985837496597
2022-10-18T07:30:01.684Z,78.06700042094975
2022-10-18T07:45:02.302Z,78.30628874605179
2022-10-18T08:00:01.913Z,78.34469033988479
2022-10-18T08:15:02.589Z,78.79218285289197
2022-10-18T08:30:02.243Z,78.56638222935216
2022-10-18T08:45:08.329Z,77.55562960806671
2022-10-18T09:00:02.561Z,76.64150281029485
2022-10-18T09:15:02.220Z,76.74040257179321
2022-10-18T09:30:01.910Z,74.98696261607094
2022-10-18T09:45:02.570Z,74.03664341719337
2022-10-18T10:00:02.224Z,75.40513081393019
2022-10-18T10:15:01.895Z,74.56106274341123
2022-10-18T10:30:06.547Z,71.68464302996888
2022-10-18T10:45:01.830Z,73.37106319514358
2022-10-18T11:00:02.505Z,72.0642318307233
2022-10-18T11:15:02.113Z,69.03430409344766
2022-10-18T11:30:01.859Z,68.80148389068928
2022-10-18T11:45:02.527Z,67.97319470276746
2022-10-18T12:00:02.158Z,63.532822746912366
2022-10-18T12:15:01.842Z,61.84822745715688
2022-10-18T12:30:02.560Z,59.285544718963976
2022-10-18T12:45:02.190Z,57.22372305308062
2022-10-18T13:00:01.893Z,56.51599491017568
2022-10-18T13:15:13.460Z,56.15151789802108
2022-10-18T13:30:02.213Z,55.39798047969002
2022-10-18T13:45:01.887Z,51.65466753074448
2022-10-18T14:00:02.685Z,52.68689402708113
2022-10-18T14:15:02.545Z,52.847530499319454
2022-10-18T14:30:02.266Z,53.136582744361384
2022-10-18T14:45:02.027Z,54.384809048955226
2022-10-18T15:00:01.868Z,56.02941243888997
2022-10-18T15:15:01.652Z,52.90893518038743
2022-10-18T15:30:02.319Z,53.97033609802368
2022-10-18T15:45:01.931Z,55.54033789574473
2022-10-18T16:00:01.601Z,58.04094578341155
2022-10-18T16:15:02.240Z,59.6400744160522
2022-10-18T16:30:02.400Z,60.92238501039587
2022-10-18T16:45:01.840Z,61.58229614844702
2022-10-18T17:00:02.487Z,61.773323346399614
2022-10-18T17:15:02.110Z,62.84719500336037
2022-10-18T17:30:01.869Z,63.304627113148754
2022-10-18T17:45:02.534Z,63.669165328523164
2022-10-18T18:00:02.152Z,64.04382430111515
2022-10-18T18:15:01.797Z,64.32332320802325
2022-10-18T18:30:02.502Z,64.58632305529788
2022-10-18T18:45:02.127Z,64.86191037446862
2022-10-18T19:00:01.852Z,65.05925262085358
2022-10-18T19:15:02.538Z,65.23352485209288
2022-10-18T19:30:02.196Z,65.52377636629757
2022-10-18T19:45:01.870Z,65.75663426836994
2022-10-18T20:00:04.429Z,65.95428796771941
2022-10-18T20:15:02.486Z,66.67474659308564
2022-10-18T20:30:03.091Z,66.19840973301686
2022-10-18T21:00:01.732Z,66.45715969523523
2022-10-18T21:15:02.356Z,66.55976585491457
2022-10-18T21:30:02.136Z,66.6735826555664
2022-10-18T21:45:01.855Z,67.01203263851629
2022-10-18T22:00:02.608Z,67.19935280549288
2022-10-18T22:15:02.238Z,67.15032996649862
2022-10-18T22:30:01.993Z,67.68060077049329
2022-10-18T22:45:01.713Z,67.75429436617947
2022-10-18T23:00:02.372Z,67.45111705436295
2022-10-18T23:15:02.061Z,67.61044605389161
2022-10-18T23:30:01.830Z,67.6657750190185
2022-10-18T23:45:02.482Z,68.01873773631492
